FMEE/RUN METAR and TAF weather

Enter ICAO airport designator
Station Type Date Time Source
FMEE METAR 2022/12/04 05:30 UTC NOAA

FMEE 040530Z AUTO 10013KT 9999 FEW013/// SCT066/// 27/22 Q1014 NOSIG


Station Type Date Time Source
FMEE Decoded METAR 2022/12/04 05:30 UTC NOAA

Saint-Denis / Gillot, Reunion (FMEE) 20-53S 055-31E 25M
Dec 04, 2022 - 12:30 AM EST / 2022.12.04 0530 UTC
Wind: from the E (100 degrees) at 15 MPH (13 KT):0
Visibility: greater than 7 mile(s):0
Sky conditions: partly cloudy
Temperature: 80 F (27 C)
Dew Point: 71 F (22 C)
Relative Humidity: 74%
Pressure (altimeter): 29.94 in. Hg (1014 hPa)
ob: FMEE 040530Z AUTO 10013KT 9999 FEW013/// SCT066/// 27/22 Q1014 NOSIG
cycle: 5

Station Type Date Time Source
FMEE TAF 2022/12/04 06:35 UTC NOAA

TAF FMEE 040500Z 0406/0512 07012KT 9999 FEW025 SCT060
BECMG 0415/0417 14010KT
BECMG 0504/0506 08018KT
TEMPO 0506/0511 08018G28KT

Example: see airport list